Time,TemperatureF,DewpointF,PressureIn,WindDirection,WindDirectionDegrees,WindSpeedMPH,WindSpeedGustMPH,Humidity,HourlyPrecipIn,Conditions,Clouds,dailyrainin,SoftwareType,DateUTC
2015-07-05 00:12:00,75.0,53.0,-100.00,West,272,20.0,25.0,46,-99.99,,,-99.99,,2015-07-05 07:12:00,
2015-07-05 00:22:00,75.0,53.0,-100.00,West,272,20.0,25.0,46,-99.99,,,-99.99,,2015-07-05 07:22:00,
2015-07-05 00:33:00,75.0,53.0,-100.00,West,272,20.0,25.0,46,-99.99,,,-99.99,,2015-07-05 07:33:00,
2015-07-05 00:43:00,75.0,53.0,-100.00,West,272,20.0,25.0,46,-99.99,,,-99.99,,2015-07-05 07:43:00,
2015-07-05 00:50:00,70.0,54.0,-100.00,WNW,282,21.0,27.0,57,-99.99,,,-99.99,,2015-07-05 07:50:00,
2015-07-05 01:13:00,70.0,54.0,-100.00,WNW,282,21.0,27.0,57,-99.99,,,-99.99,,2015-07-05 08:13:00,
2015-07-05 01:23:00,70.0,54.0,-100.00,WNW,282,21.0,27.0,57,-99.99,,,-99.99,,2015-07-05 08:23:00,
2015-07-05 01:33:00,70.0,54.0,-100.00,WNW,282,21.0,27.0,57,-99.99,,,-99.99,,2015-07-05 08:33:00,
2015-07-05 01:43:00,70.0,54.0,-100.00,WNW,282,21.0,27.0,57,-99.99,,,-99.99,,2015-07-05 08:43:00,
2015-07-05 01:50:00,71.0,54.0,-100.00,WNW,285,18.0,23.0,55,-99.99,,,-99.99,,2015-07-05 08:50:00,
2015-07-05 02:12:00,71.0,54.0,-100.00,WNW,285,18.0,23.0,55,-99.99,,,-99.99,,2015-07-05 09:12:00,
2015-07-05 02:23:00,71.0,54.0,-100.00,WNW,285,18.0,23.0,55,-99.99,,,-99.99,,2015-07-05 09:23:00,
2015-07-05 02:34:00,71.0,54.0,-100.00,WNW,285,18.0,23.0,55,-99.99,,,-99.99,,2015-07-05 09:34:00,
2015-07-05 02:43:00,71.0,54.0,-100.00,WNW,285,18.0,23.0,55,-99.99,,,-99.99,,2015-07-05 09:43:00,
2015-07-05 02:50:00,70.0,52.0,-100.00,WNW,284,16.0,21.0,53,-99.99,,,-99.99,,2015-07-05 09:50:00,
2015-07-05 03:12:00,70.0,52.0,-100.00,WNW,284,16.0,21.0,53,-99.99,,,-99.99,,2015-07-05 10:12:00,
2015-07-05 03:23:00,70.0,52.0,-100.00,WNW,284,16.0,21.0,53,-99.99,,,-99.99,,2015-07-05 10:23:00,
2015-07-05 03:33:00,70.0,52.0,-100.00,WNW,284,16.0,21.0,53,-99.99,,,-99.99,,2015-07-05 10:33:00,
2015-07-05 03:43:00,70.0,52.0,-100.00,WNW,284,16.0,21.0,53,-99.99,,,-99.99,,2015-07-05 10:43:00,
2015-07-05 03:50:00,70.0,54.0,-100.00,WNW,282,14.0,21.0,56,-99.99,,,-99.99,,2015-07-05 10:50:00,
2015-07-05 04:13:00,70.0,54.0,-100.00,WNW,282,14.0,21.0,56,-99.99,,,-99.99,,2015-07-05 11:13:00,
2015-07-05 04:23:00,70.0,54.0,-100.00,WNW,282,14.0,21.0,56,-99.99,,,-99.99,,2015-07-05 11:23:00,
2015-07-05 04:33:00,70.0,54.0,-100.00,WNW,282,14.0,21.0,56,-99.99,,,-99.99,,2015-07-05 11:33:00,
2015-07-05 04:43:00,70.0,54.0,-100.00,WNW,282,14.0,21.0,56,-99.99,,,-99.99,,2015-07-05 11:43:00,
2015-07-05 04:50:00,70.0,53.0,-100.00,WNW,286,13.0,18.0,54,-99.99,,,-99.99,,2015-07-05 11:50:00,
2015-07-05 05:13:00,70.0,53.0,-100.00,WNW,286,13.0,18.0,54,-99.99,,,-99.99,,2015-07-05 12:13:00,
2015-07-05 05:23:00,70.0,53.0,-100.00,WNW,286,13.0,18.0,54,-99.99,,,-99.99,,2015-07-05 12:23:00,
2015-07-05 05:33:00,70.0,53.0,-100.00,WNW,286,13.0,18.0,54,-99.99,,,-99.99,,2015-07-05 12:33:00,
2015-07-05 05:43:00,70.0,53.0,-100.00,WNW,286,13.0,18.0,54,-99.99,,,-99.99,,2015-07-05 12:43:00,
2015-07-05 05:50:00,68.0,50.0,-100.00,WNW,288,11.0,17.0,53,-99.99,,,-99.99,,2015-07-05 12:50:00,
2015-07-05 06:13:00,68.0,50.0,-100.00,WNW,288,11.0,17.0,53,-99.99,,,-99.99,,2015-07-05 13:13:00,
2015-07-05 06:23:00,68.0,50.0,-100.00,WNW,288,11.0,17.0,53,-99.99,,,-99.99,,2015-07-05 13:23:00,
2015-07-05 06:33:00,68.0,50.0,-100.00,WNW,288,11.0,17.0,53,-99.99,,,-99.99,,2015-07-05 13:33:00,
2015-07-05 06:43:00,68.0,50.0,-100.00,WNW,288,11.0,17.0,53,-99.99,,,-99.99,,2015-07-05 13:43:00,
2015-07-05 06:50:00,71.0,49.0,-100.00,WNW,283,14.0,18.0,46,-99.99,,,-99.99,,2015-07-05 13:50:00,
2015-07-05 07:12:00,71.0,49.0,-100.00,WNW,283,14.0,18.0,46,-99.99,,,-99.99,,2015-07-05 14:12:00,
2015-07-05 07:23:00,71.0,49.0,-100.00,WNW,283,14.0,18.0,46,-99.99,,,-99.99,,2015-07-05 14:23:00,
2015-07-05 07:33:00,71.0,49.0,-100.00,WNW,283,14.0,18.0,46,-99.99,,,-99.99,,2015-07-05 14:33:00,
2015-07-05 07:43:00,71.0,49.0,-100.00,WNW,283,14.0,18.0,46,-99.99,,,-99.99,,2015-07-05 14:43:00,
2015-07-05 07:50:00,73.0,54.0,-100.00,WNW,283,13.0,17.0,51,-99.99,,,-99.99,,2015-07-05 14:50:00,
2015-07-05 08:12:00,73.0,54.0,-100.00,WNW,283,13.0,17.0,51,-99.99,,,-99.99,,2015-07-05 15:12:00,
2015-07-05 08:23:00,73.0,54.0,-100.00,WNW,283,13.0,17.0,51,-99.99,,,-99.99,,2015-07-05 15:23:00,
2015-07-05 08:33:00,73.0,54.0,-100.00,WNW,283,13.0,17.0,51,-99.99,,,-99.99,,2015-07-05 15:33:00,
2015-07-05 08:43:00,73.0,54.0,-100.00,WNW,283,13.0,17.0,51,-99.99,,,-99.99,,2015-07-05 15:43:00,
2015-07-05 08:50:00,78.0,55.0,-100.00,WNW,283,11.0,17.0,45,-99.99,,,-99.99,,2015-07-05 15:50:00,
2015-07-05 09:13:00,78.0,55.0,-100.00,WNW,283,11.0,17.0,45,-99.99,,,-99.99,,2015-07-05 16:13:00,
2015-07-05 09:23:00,78.0,55.0,-100.00,WNW,283,11.0,17.0,45,-99.99,,,-99.99,,2015-07-05 16:23:00,
2015-07-05 09:33:00,78.0,55.0,-100.00,WNW,283,11.0,17.0,45,-99.99,,,-99.99,,2015-07-05 16:33:00,
2015-07-05 09:43:00,78.0,55.0,-100.00,WNW,283,11.0,17.0,45,-99.99,,,-99.99,,2015-07-05 16:43:00,
2015-07-05 09:50:00,79.0,53.0,-100.00,West,271,13.0,19.0,40,-99.99,,,-99.99,,2015-07-05 16:50:00,
2015-07-05 10:13:00,79.0,53.0,-100.00,West,271,13.0,19.0,40,-99.99,,,-99.99,,2015-07-05 17:13:00,
2015-07-05 10:23:00,79.0,53.0,-100.00,West,271,13.0,19.0,40,-99.99,,,-99.99,,2015-07-05 17:23:00,
2015-07-05 10:33:00,79.0,53.0,-100.00,West,271,13.0,19.0,40,-99.99,,,-99.99,,2015-07-05 17:33:00,
2015-07-05 10:44:00,79.0,53.0,-100.00,West,271,13.0,19.0,40,-99.99,,,-99.99,,2015-07-05 17:44:00,
2015-07-05 10:50:00,81.0,54.0,-100.00,West,263,13.0,22.0,39,-99.99,,,-99.99,,2015-07-05 17:50:00,
2015-07-05 11:13:00,81.0,54.0,-100.00,West,263,13.0,22.0,39,-99.99,,,-99.99,,2015-07-05 18:13:00,
2015-07-05 11:23:00,81.0,54.0,-100.00,West,263,13.0,22.0,39,-99.99,,,-99.99,,2015-07-05 18:23:00,
2015-07-05 11:44:00,81.0,54.0,-100.00,West,263,13.0,22.0,39,-99.99,,,-99.99,,2015-07-05 18:44:00,
2015-07-05 11:50:00,86.0,54.0,-100.00,West,259,15.0,22.0,33,-99.99,,,-99.99,,2015-07-05 18:50:00,
2015-07-05 12:13:00,86.0,54.0,-100.00,West,259,15.0,22.0,33,-99.99,,,-99.99,,2015-07-05 19:13:00,
2015-07-05 12:23:00,86.0,54.0,-100.00,West,259,15.0,22.0,33,-99.99,,,-99.99,,2015-07-05 19:23:00,
2015-07-05 12:33:00,86.0,54.0,-100.00,West,259,15.0,22.0,33,-99.99,,,-99.99,,2015-07-05 19:33:00,
2015-07-05 12:43:00,86.0,54.0,-100.00,West,259,15.0,22.0,33,-99.99,,,-99.99,,2015-07-05 19:43:00,
2015-07-05 12:50:00,89.0,54.0,-100.00,WSW,257,16.0,24.0,31,-99.99,,,-99.99,,2015-07-05 19:50:00,
2015-07-05 13:12:00,89.0,54.0,-100.00,WSW,257,16.0,24.0,31,-99.99,,,-99.99,,2015-07-05 20:12:00,
2015-07-05 13:23:00,89.0,54.0,-100.00,WSW,257,16.0,24.0,31,-99.99,,,-99.99,,2015-07-05 20:23:00,
2015-07-05 13:33:00,89.0,54.0,-100.00,WSW,257,16.0,24.0,31,-99.99,,,-99.99,,2015-07-05 20:33:00,
2015-07-05 13:43:00,89.0,54.0,-100.00,WSW,257,16.0,24.0,31,-99.99,,,-99.99,,2015-07-05 20:43:00,
2015-07-05 13:50:00,89.0,54.0,-100.00,West,271,20.0,30.0,31,-99.99,,,-99.99,,2015-07-05 20:50:00,
2015-07-05 14:12:00,89.0,54.0,-100.00,West,271,20.0,30.0,31,-99.99,,,-99.99,,2015-07-05 21:12:00,
2015-07-05 14:23:00,89.0,54.0,-100.00,West,271,20.0,30.0,31,-99.99,,,-99.99,,2015-07-05 21:23:00,
2015-07-05 14:33:00,89.0,54.0,-100.00,West,271,20.0,30.0,31,-99.99,,,-99.99,,2015-07-05 21:33:00,
2015-07-05 14:43:00,89.0,54.0,-100.00,West,271,20.0,30.0,31,-99.99,,,-99.99,,2015-07-05 21:43:00,
2015-07-05 14:50:00,89.0,54.0,-100.00,West,276,26.0,39.0,30,-99.99,,,-99.99,,2015-07-05 21:50:00,
2015-07-05 15:13:00,89.0,54.0,-100.00,West,276,26.0,39.0,30,-99.99,,,-99.99,,2015-07-05 22:13:00,
2015-07-05 15:23:00,89.0,54.0,-100.00,West,276,26.0,39.0,30,-99.99,,,-99.99,,2015-07-05 22:23:00,
2015-07-05 15:33:00,89.0,54.0,-100.00,West,276,26.0,39.0,30,-99.99,,,-99.99,,2015-07-05 22:33:00,
2015-07-05 15:43:00,89.0,54.0,-100.00,West,276,26.0,39.0,30,-99.99,,,-99.99,,2015-07-05 22:43:00,
2015-07-05 15:50:00,88.0,52.0,-100.00,West,275,28.0,43.0,29,-99.99,,,-99.99,,2015-07-05 22:50:00,
2015-07-05 16:13:00,88.0,52.0,-100.00,West,275,28.0,43.0,29,-99.99,,,-99.99,,2015-07-05 23:13:00,
2015-07-05 16:23:00,88.0,52.0,-100.00,West,275,28.0,43.0,29,-99.99,,,-99.99,,2015-07-05 23:23:00,
2015-07-05 16:33:00,88.0,52.0,-100.00,West,275,28.0,43.0,29,-99.99,,,-99.99,,2015-07-05 23:33:00,
2015-07-05 16:43:00,88.0,52.0,-100.00,West,275,28.0,43.0,29,-99.99,,,-99.99,,2015-07-05 23:43:00,
2015-07-05 16:50:00,89.0,52.0,-100.00,West,280,32.0,49.0,28,-99.99,,,-99.99,,2015-07-05 23:50:00,
2015-07-05 17:23:00,89.0,52.0,-100.00,West,280,32.0,49.0,28,-99.99,,,-99.99,,2015-07-06 00:23:00,
2015-07-05 17:33:00,89.0,52.0,-100.00,West,280,32.0,49.0,28,-99.99,,,-99.99,,2015-07-06 00:33:00,
2015-07-05 17:44:00,89.0,52.0,-100.00,West,280,32.0,49.0,28,-99.99,,,-99.99,,2015-07-06 00:44:00,
2015-07-05 17:50:00,86.0,50.0,-100.00,West,280,31.0,50.0,29,-99.99,,,-99.99,,2015-07-06 00:50:00,
2015-07-05 18:12:00,86.0,50.0,-100.00,West,280,31.0,50.0,29,-99.99,,,-99.99,,2015-07-06 01:12:00,
2015-07-05 18:23:00,86.0,50.0,-100.00,West,280,31.0,50.0,29,-99.99,,,-99.99,,2015-07-06 01:23:00,
2015-07-05 18:33:00,86.0,50.0,-100.00,West,280,31.0,50.0,29,-99.99,,,-99.99,,2015-07-06 01:33:00,
2015-07-05 18:43:00,86.0,50.0,-100.00,West,280,31.0,50.0,29,-99.99,,,-99.99,,2015-07-06 01:43:00,
2015-07-05 18:50:00,83.0,50.0,-100.00,West,277,28.0,44.0,32,-99.99,,,-99.99,,2015-07-06 01:50:00,
2015-07-05 19:12:00,83.0,50.0,-100.00,West,277,28.0,44.0,32,-99.99,,,-99.99,,2015-07-06 02:12:00,
2015-07-05 19:23:00,83.0,50.0,-100.00,West,277,28.0,44.0,32,-99.99,,,-99.99,,2015-07-06 02:23:00,
2015-07-05 19:33:00,83.0,50.0,-100.00,West,277,28.0,44.0,32,-99.99,,,-99.99,,2015-07-06 02:33:00,
2015-07-05 19:43:00,83.0,50.0,-100.00,West,277,28.0,44.0,32,-99.99,,,-99.99,,2015-07-06 02:43:00,
2015-07-05 19:50:00,78.0,52.0,-100.00,West,269,22.0,39.0,40,-99.99,,,-99.99,,2015-07-06 02:50:00,
2015-07-05 20:33:00,78.0,52.0,-100.00,West,269,22.0,39.0,40,-99.99,,,-99.99,,2015-07-06 03:33:00,
2015-07-05 20:43:00,78.0,52.0,-100.00,West,269,22.0,39.0,40,-99.99,,,-99.99,,2015-07-06 03:43:00,
2015-07-05 20:50:00,74.0,52.0,-100.00,West,259,23.0,33.0,47,-99.99,,,-99.99,,2015-07-06 03:50:00,
2015-07-05 21:33:00,74.0,52.0,-100.00,West,259,23.0,33.0,47,-99.99,,,-99.99,,2015-07-06 04:33:00,
2015-07-05 21:43:00,74.0,52.0,-100.00,West,259,23.0,33.0,47,-99.99,,,-99.99,,2015-07-06 04:43:00,
2015-07-05 21:50:00,74.0,53.0,-100.00,West,266,19.0,31.0,48,-99.99,,,-99.99,,2015-07-06 04:50:00,
2015-07-05 22:12:00,74.0,53.0,-100.00,West,266,19.0,31.0,48,-99.99,,,-99.99,,2015-07-06 05:12:00,
2015-07-05 22:23:00,74.0,53.0,-100.00,West,266,19.0,31.0,48,-99.99,,,-99.99,,2015-07-06 05:23:00,
2015-07-05 22:33:00,74.0,53.0,-100.00,West,266,19.0,31.0,48,-99.99,,,-99.99,,2015-07-06 05:33:00,
2015-07-05 22:43:00,74.0,53.0,-100.00,West,266,19.0,31.0,48,-99.99,,,-99.99,,2015-07-06 05:43:00,